Bellaire, Ohio
Current Conditions -  °F | °C
As of 9:53 PM on Friday 31 Oct 2014 (Local Time) from KHLG Reporting Station
Light Rain Light Rain  
Wind Chill: 38°   Ceiling: 2100
Heat Index: 41°   Visibility: 5mi
Dew Point: 39°   Wind: 5mph
Humidity: 93%   Direction: 50°NE
Pressure: 29.88"   Gusts: NA
Location:  40.02°N, 80.74°W
Report Text: KHLG 010153Z 05004KT 5SM -RA BR SCT004 OVC021 05/04 A2988 RMK AO2 SLP127 P0004 T00500039
Loading
Personal Weather Stations






























Interactive Weather Map
Tropical Storm Tracking
New forecast layout! Learn more

10-Day Weather Forecast

Advertisements
Track Severe Weather on mobile